createdAt,value
2023-03-17T00:01:13.015Z,89.28
2023-03-17T00:06:29.873Z,89.32
2023-03-17T00:11:31.385Z,90.20
2023-03-17T00:16:37.454Z,90.66
2023-03-17T00:21:42.406Z,90.97
2023-03-17T00:26:44.405Z,91.79
2023-03-17T00:31:49.354Z,91.54
2023-03-17T00:36:51.535Z,92.87
2023-03-17T00:41:53.349Z,92.72
2023-03-17T00:46:55.015Z,92.79
2023-03-17T00:51:56.632Z,92.79
2023-03-17T00:56:58.446Z,92.38
2023-03-17T01:02:00.343Z,92.84
2023-03-17T01:07:04.959Z,92.27
2023-03-17T01:12:07.946Z,92.04
2023-03-17T01:17:16.687Z,91.40
2023-03-17T01:22:18.287Z,90.96
2023-03-17T01:27:19.844Z,90.93
2023-03-17T01:32:24.356Z,91.12
2023-03-17T01:37:27.000Z,90.94
2023-03-17T01:42:29.283Z,91.83
2023-03-17T01:47:31.943Z,92.01
2023-03-17T01:52:36.648Z,92.04
2023-03-17T01:57:53.516Z,92.45
2023-03-17T02:02:56.575Z,92.88
2023-03-17T02:07:58.679Z,92.77
2023-03-17T02:13:05.811Z,93.60
2023-03-17T02:18:09.444Z,94.10
2023-03-17T02:23:11.776Z,94.37
2023-03-17T02:28:23.463Z,94.50
2023-03-17T02:33:25.304Z,94.59
2023-03-17T02:38:29.664Z,94.75
2023-03-17T02:43:34.354Z,94.60
2023-03-17T02:48:36.746Z,94.96
2023-03-17T02:53:38.281Z,94.98
2023-03-17T02:58:39.768Z,95.17
2023-03-17T03:03:41.372Z,96.12
2023-03-17T03:08:42.959Z,96.48
2023-03-17T03:13:44.919Z,97.07
2023-03-17T03:18:46.474Z,97.58
2023-03-17T03:23:48.124Z,97.47
2023-03-17T03:28:51.177Z,97.52
2023-03-17T03:33:52.867Z,97.65
2023-03-17T03:38:54.391Z,97.79
2023-03-17T03:43:56.040Z,97.89
2023-03-17T03:48:57.528Z,98.20
2023-03-17T03:53:59.096Z,98.98
2023-03-17T03:59:01.171Z,98.00
2023-03-17T04:04:02.698Z,99.18
2023-03-17T04:09:04.342Z,99.03
2023-03-17T04:14:06.459Z,99.91
2023-03-17T04:19:09.045Z,98.95
2023-03-17T04:24:10.632Z,100.00
2023-03-17T04:29:15.607Z,99.49
2023-03-17T04:34:18.712Z,100.00
2023-03-17T04:39:20.224Z,100.00
2023-03-17T04:44:21.779Z,100.00
2023-03-17T04:49:23.353Z,100.00
2023-03-17T04:54:25.190Z,100.00
2023-03-17T04:59:27.331Z,100.00
2023-03-17T05:04:31.991Z,100.00
2023-03-17T05:09:34.033Z,100.00
2023-03-17T05:14:36.263Z,100.00
2023-03-17T05:19:37.762Z,100.00
2023-03-17T05:24:39.239Z,100.00
2023-03-17T05:29:40.795Z,100.00
2023-03-17T05:34:42.395Z,100.00
2023-03-17T05:39:43.926Z,100.00
2023-03-17T05:44:45.413Z,100.00
2023-03-17T05:49:46.911Z,100.00
2023-03-17T05:54:49.072Z,100.00
2023-03-17T05:59:54.383Z,100.00
2023-03-17T06:04:55.884Z,100.00
2023-03-17T06:09:57.397Z,100.00
2023-03-17T06:14:58.922Z,100.00
2023-03-17T06:20:00.420Z,100.00
2023-03-17T06:25:02.020Z,100.00
2023-03-17T06:30:05.819Z,100.00
2023-03-17T06:35:07.705Z,100.00
2023-03-17T06:40:10.182Z,100.00
2023-03-17T06:45:12.394Z,100.00
2023-03-17T06:50:14.096Z,100.00
2023-03-17T06:55:15.860Z,100.00
2023-03-17T07:00:18.063Z,100.00
2023-03-17T07:05:19.622Z,100.00
2023-03-17T07:10:23.124Z,100.00
2023-03-17T07:15:24.746Z,100.00
2023-03-17T07:20:26.491Z,100.00
2023-03-17T07:25:28.306Z,100.00
2023-03-17T07:30:29.886Z,100.00
2023-03-17T07:35:33.714Z,100.00
2023-03-17T07:40:36.469Z,100.00
2023-03-17T07:45:38.192Z,100.00
2023-03-17T07:50:40.149Z,99.11
2023-03-17T07:55:42.567Z,96.63
2023-03-17T08:00:48.959Z,95.00
2023-03-17T08:05:58.001Z,91.44
2023-03-17T08:11:04.841Z,89.16
2023-03-17T08:16:07.362Z,84.73
2023-03-17T08:21:09.707Z,84.16
2023-03-17T08:26:11.375Z,84.97
2023-03-17T08:31:21.596Z,85.29
2023-03-17T08:36:24.136Z,84.11
2023-03-17T08:41:28.148Z,82.36
2023-03-17T08:46:32.517Z,80.94
2023-03-17T08:51:36.770Z,80.70
2023-03-17T08:56:40.164Z,78.64
2023-03-17T09:01:42.075Z,77.35
2023-03-17T09:07:01.371Z,77.71
2023-03-17T09:12:06.341Z,76.18
2023-03-17T09:17:08.508Z,75.61
2023-03-17T09:22:15.230Z,73.72
2023-03-17T09:27:16.821Z,71.63
2023-03-17T09:32:21.117Z,71.67
2023-03-17T09:37:22.657Z,68.68
2023-03-17T09:42:40.583Z,67.70
2023-03-17T09:48:17.317Z,66.00
2023-03-17T09:53:22.997Z,65.98
2023-03-17T09:58:35.859Z,66.56
2023-03-17T10:03:37.569Z,66.38
2023-03-17T10:08:45.173Z,64.84
2023-03-17T10:13:57.819Z,64.87
2023-03-17T10:19:07.163Z,63.80
2023-03-17T10:24:10.757Z,63.21
2023-03-17T10:29:18.819Z,62.43
2023-03-17T10:34:32.695Z,61.51
2023-03-17T10:39:47.060Z,59.07
2023-03-17T10:44:53.963Z,58.89
2023-03-17T10:49:57.968Z,56.86
2023-03-17T10:55:05.568Z,55.75
2023-03-17T11:00:20.192Z,56.16
2023-03-17T11:05:24.821Z,56.67
2023-03-17T11:10:29.229Z,56.84
2023-03-17T11:15:37.849Z,54.01
2023-03-17T11:21:06.724Z,54.90
2023-03-17T11:26:21.287Z,54.86
2023-03-17T11:31:27.423Z,54.06
2023-03-17T11:36:57.826Z,52.03
2023-03-17T11:42:29.181Z,52.74
2023-03-17T11:47:52.267Z,51.74
2023-03-17T11:53:12.211Z,52.57
2023-03-17T11:58:24.964Z,51.90
2023-03-17T12:03:45.962Z,50.91
2023-03-17T12:09:01.899Z,50.73
2023-03-17T12:14:30.318Z,50.32
2023-03-17T12:19:51.114Z,49.58
2023-03-17T12:25:25.577Z,48.72
2023-03-17T12:30:54.406Z,48.67
2023-03-17T12:36:45.778Z,48.37
2023-03-17T12:42:08.895Z,47.85
2023-03-17T12:47:13.134Z,48.92
2023-03-17T12:52:26.692Z,47.92
2023-03-17T12:57:31.011Z,47.94
2023-03-17T13:02:38.017Z,47.19
2023-03-17T13:07:51.144Z,46.77
2023-03-17T13:13:05.781Z,47.24
2023-03-17T13:18:23.477Z,46.08
2023-03-17T13:23:44.323Z,46.28
2023-03-17T13:28:49.180Z,46.33
2023-03-17T13:33:56.871Z,45.72
2023-03-17T13:39:36.480Z,45.67
2023-03-17T13:44:56.949Z,45.53
2023-03-17T13:50:06.456Z,45.10
2023-03-17T13:55:20.473Z,45.60
2023-03-17T14:00:26.668Z,45.34
2023-03-17T14:05:31.322Z,45.97
2023-03-17T14:10:33.969Z,45.42
2023-03-17T14:15:48.495Z,45.21
2023-03-17T14:21:02.046Z,45.33
2023-03-17T14:26:03.993Z,45.44
2023-03-17T14:31:07.511Z,45.37
2023-03-17T14:36:14.258Z,45.58
2023-03-17T14:41:18.188Z,45.61
2023-03-17T14:46:30.656Z,45.34
2023-03-17T14:51:37.885Z,45.33
2023-03-17T14:57:00.027Z,46.48
2023-03-17T15:02:15.788Z,46.63
2023-03-17T15:07:35.837Z,47.27
2023-03-17T15:12:37.468Z,48.11
2023-03-17T15:17:39.044Z,47.91
2023-03-17T15:22:55.630Z,48.05
2023-03-17T15:27:57.732Z,48.02
2023-03-17T15:33:03.099Z,49.07
2023-03-17T15:38:05.923Z,49.10
2023-03-17T15:43:07.439Z,48.83
2023-03-17T15:48:29.787Z,48.68
2023-03-17T15:53:33.681Z,49.41
2023-03-17T15:58:35.189Z,49.10
2023-03-17T16:03:41.229Z,49.80
2023-03-17T16:08:42.898Z,49.71
2023-03-17T16:13:45.155Z,49.77
2023-03-17T16:18:47.596Z,49.85
2023-03-17T16:23:49.756Z,50.22
2023-03-17T16:28:51.419Z,50.26
2023-03-17T16:33:54.165Z,50.59
2023-03-17T16:38:55.769Z,50.40
2023-03-17T16:44:02.047Z,50.78
2023-03-17T16:49:04.909Z,51.06
2023-03-17T16:54:06.418Z,52.76
2023-03-17T16:59:14.872Z,53.40
2023-03-17T17:04:16.365Z,54.51
2023-03-17T17:09:18.066Z,54.83
2023-03-17T17:14:19.545Z,56.48
2023-03-17T17:19:21.942Z,57.07
2023-03-17T17:24:23.478Z,57.75
2023-03-17T17:29:24.959Z,58.52
2023-03-17T17:34:26.458Z,59.72
2023-03-17T17:39:27.994Z,60.95
2023-03-17T17:44:30.959Z,61.29
2023-03-17T17:49:32.591Z,62.25
2023-03-17T17:54:34.100Z,62.42
2023-03-17T17:59:37.804Z,62.42
2023-03-17T18:04:39.768Z,63.17
2023-03-17T18:09:41.307Z,64.00
2023-03-17T18:14:42.786Z,64.29
2023-03-17T18:19:44.285Z,65.37
2023-03-17T18:24:46.497Z,65.62
2023-03-17T18:29:48.469Z,65.94
2023-03-17T18:34:50.292Z,66.46
2023-03-17T18:40:11.654Z,67.19
2023-03-17T18:45:14.007Z,68.05
2023-03-17T18:50:17.512Z,68.73
2023-03-17T18:55:19.042Z,69.47
2023-03-17T19:00:21.151Z,70.04
2023-03-17T19:05:22.968Z,70.42
2023-03-17T19:10:24.464Z,71.17
2023-03-17T19:15:26.644Z,71.32
2023-03-17T19:20:28.258Z,72.32
2023-03-17T19:25:29.932Z,72.79
2023-03-17T19:30:31.737Z,74.27
2023-03-17T19:35:33.501Z,74.39
2023-03-17T19:40:37.017Z,75.07
2023-03-17T19:45:38.536Z,74.68
2023-03-17T19:50:40.739Z,75.42
2023-03-17T19:55:43.553Z,75.19
2023-03-17T20:00:45.237Z,75.52
2023-03-17T20:05:46.745Z,75.93
2023-03-17T20:10:53.801Z,76.54
2023-03-17T20:15:55.480Z,77.24
2023-03-17T20:20:58.639Z,77.69
2023-03-17T20:26:01.307Z,77.92
2023-03-17T20:31:04.539Z,78.17
2023-03-17T20:36:06.660Z,78.61
2023-03-17T20:41:13.678Z,78.10
2023-03-17T20:46:18.105Z,77.62
2023-03-17T20:51:19.948Z,78.41
2023-03-17T20:56:24.207Z,79.73
2023-03-17T21:01:26.648Z,80.02
2023-03-17T21:06:31.386Z,80.80
2023-03-17T21:11:33.539Z,81.21
2023-03-17T21:16:36.376Z,81.12
2023-03-17T21:21:40.097Z,81.31
2023-03-17T21:26:41.621Z,81.51
2023-03-17T21:31:43.134Z,81.08
2023-03-17T21:36:44.887Z,82.05
2023-03-17T21:41:49.151Z,82.44
2023-03-17T21:46:50.930Z,83.38
2023-03-17T21:51:52.717Z,83.12
2023-03-17T21:56:54.230Z,82.28
2023-03-17T22:01:55.723Z,82.81
2023-03-17T22:06:58.835Z,82.69
2023-03-17T22:12:00.430Z,83.80
2023-03-17T22:17:05.268Z,84.43
2023-03-17T22:22:06.813Z,83.87
2023-03-17T22:27:08.416Z,84.30
2023-03-17T22:32:10.523Z,83.61
2023-03-17T22:37:12.063Z,83.82
2023-03-17T22:42:13.728Z,83.47
2023-03-17T22:47:15.217Z,83.79
2023-03-17T22:52:16.727Z,83.93
2023-03-17T22:57:18.206Z,83.26
2023-03-17T23:02:19.870Z,82.89
2023-03-17T23:07:21.372Z,83.39
2023-03-17T23:12:24.497Z,83.41
2023-03-17T23:17:26.623Z,83.01
2023-03-17T23:22:28.257Z,83.87
2023-03-17T23:27:29.964Z,83.56
2023-03-17T23:32:31.906Z,84.86
2023-03-17T23:37:33.496Z,85.19
2023-03-17T23:42:35.637Z,84.65
2023-03-17T23:47:38.240Z,85.23
2023-03-17T23:52:40.948Z,84.84
2023-03-17T23:57:44.204Z,85.09
